createdAt,value
2023-08-15T00:00:51.461Z,22.70
2023-08-15T00:03:34.245Z,22.70
2023-08-15T00:06:02.841Z,22.60
2023-08-15T00:08:31.068Z,22.60
2023-08-15T00:10:59.868Z,22.60
2023-08-15T00:13:28.519Z,22.50
2023-08-15T00:15:58.517Z,22.50
2023-08-15T00:18:26.992Z,22.50
2023-08-15T00:20:55.513Z,22.40
2023-08-15T00:23:23.786Z,22.40
2023-08-15T00:25:52.624Z,22.40
2023-08-15T00:28:21.179Z,22.40
2023-08-15T00:30:49.727Z,22.40
2023-08-15T00:33:19.462Z,22.40
2023-08-15T00:35:48.048Z,22.30
2023-08-15T00:38:16.671Z,22.30
2023-08-15T00:40:45.251Z,22.30
2023-08-15T00:43:13.588Z,22.30
2023-08-15T00:45:44.131Z,22.20
2023-08-15T00:48:15.207Z,22.20
2023-08-15T00:50:46.615Z,22.20
2023-08-15T00:53:15.063Z,22.10
2023-08-15T00:55:44.321Z,22.10
2023-08-15T00:58:12.751Z,22.10
2023-08-15T01:00:41.466Z,22.10
2023-08-15T01:03:09.867Z,22.10
2023-08-15T01:05:40.731Z,22.10
2023-08-15T01:08:10.441Z,22.10
2023-08-15T01:10:41.320Z,22.10
2023-08-15T01:13:16.267Z,22.10
2023-08-15T01:15:51.215Z,22.10
2023-08-15T01:18:26.090Z,22.10
2023-08-15T01:20:56.918Z,22.00
2023-08-15T01:23:37.669Z,22.00
2023-08-15T01:26:06.197Z,21.90
2023-08-15T01:28:34.435Z,21.90
2023-08-15T01:31:11.226Z,21.90
2023-08-15T01:33:45.168Z,21.90
2023-08-15T01:36:18.507Z,21.80
2023-08-15T01:38:53.429Z,21.80
2023-08-15T01:41:23.455Z,21.80
2023-08-15T01:43:54.081Z,21.80
2023-08-15T01:46:23.000Z,21.80
2023-08-15T01:48:51.327Z,21.80
2023-08-15T01:51:19.839Z,21.80
2023-08-15T01:53:49.537Z,21.80
2023-08-15T01:56:18.047Z,21.80
2023-08-15T01:58:46.337Z,21.80
2023-08-15T02:01:15.462Z,21.80
2023-08-15T02:03:43.879Z,21.70
2023-08-15T02:06:12.430Z,21.80
2023-08-15T02:08:40.666Z,21.80
2023-08-15T02:11:10.695Z,21.80
2023-08-15T02:13:38.928Z,21.70
2023-08-15T02:16:07.705Z,21.70
2023-08-15T02:18:35.978Z,21.70
2023-08-15T02:21:04.598Z,21.60
2023-08-15T02:23:33.048Z,21.60
2023-08-15T02:26:01.524Z,21.60
2023-08-15T02:28:32.306Z,21.60
2023-08-15T02:31:01.086Z,21.50
2023-08-15T02:33:29.425Z,21.50
2023-08-15T02:35:57.999Z,21.50
2023-08-15T02:38:26.278Z,21.40
2023-08-15T02:40:54.786Z,21.40
2023-08-15T02:43:23.149Z,21.40
2023-08-15T02:45:53.096Z,21.30
2023-08-15T02:48:21.777Z,21.30
2023-08-15T02:50:50.348Z,21.20
2023-08-15T02:53:18.689Z,21.20
2023-08-15T02:55:51.744Z,21.20
2023-08-15T02:58:20.345Z,21.20
2023-08-15T03:00:48.997Z,21.10
2023-08-15T03:03:18.680Z,21.10
2023-08-15T03:05:47.387Z,21.10
2023-08-15T03:08:15.689Z,21.10
2023-08-15T03:10:44.252Z,21.10
2023-08-15T03:13:13.474Z,21.00
2023-08-15T03:15:42.225Z,21.00
2023-08-15T03:18:10.680Z,21.00
2023-08-15T03:20:40.739Z,21.00
2023-08-15T03:23:09.124Z,21.00
2023-08-15T03:25:37.738Z,21.00
2023-08-15T03:28:06.322Z,21.00
2023-08-15T03:30:36.212Z,21.00
2023-08-15T03:33:04.632Z,21.00
2023-08-15T03:35:33.276Z,20.90
2023-08-15T03:38:02.897Z,20.90
2023-08-15T03:40:31.437Z,20.90
2023-08-15T03:43:00.054Z,20.90
2023-08-15T03:45:30.888Z,20.90
2023-08-15T03:47:59.599Z,20.90
2023-08-15T03:50:28.366Z,20.90
2023-08-15T03:52:56.741Z,20.90
2023-08-15T03:55:26.797Z,20.90
2023-08-15T03:57:55.506Z,21.00
2023-08-15T04:00:25.117Z,21.00
2023-08-15T04:02:54.046Z,21.10
2023-08-15T04:05:25.218Z,21.10
2023-08-15T04:07:53.868Z,21.10
2023-08-15T04:10:22.922Z,21.20
2023-08-15T04:12:52.758Z,21.20
2023-08-15T04:15:21.376Z,21.30
2023-08-15T04:17:49.678Z,21.30
2023-08-15T04:20:18.645Z,21.50
2023-08-15T04:22:46.899Z,21.60
2023-08-15T04:25:17.006Z,21.80
2023-08-15T04:27:45.320Z,21.90
2023-08-15T04:30:15.407Z,22.20
2023-08-15T04:32:43.691Z,22.50
2023-08-15T04:35:12.253Z,22.70
2023-08-15T04:37:40.677Z,23.00
2023-08-15T04:40:14.028Z,23.40
2023-08-15T04:42:42.565Z,23.70
2023-08-15T04:45:11.802Z,24.00
2023-08-15T04:47:41.593Z,24.20
2023-08-15T04:50:11.316Z,24.50
2023-08-15T04:52:39.561Z,24.80
2023-08-15T04:55:11.555Z,25.00
2023-08-15T04:57:40.034Z,25.30
2023-08-15T05:00:10.157Z,25.50
2023-08-15T05:02:38.609Z,25.80
2023-08-15T05:05:11.765Z,26.00
2023-08-15T05:07:40.737Z,26.30
2023-08-15T05:10:10.247Z,26.60
2023-08-15T05:12:38.608Z,26.80
2023-08-15T05:15:09.248Z,27.00
2023-08-15T05:17:38.225Z,27.30
2023-08-15T05:20:10.001Z,27.50
2023-08-15T05:22:38.394Z,27.80
2023-08-15T05:25:07.682Z,28.10
2023-08-15T05:27:36.099Z,28.40
2023-08-15T05:30:05.146Z,28.60
2023-08-15T05:32:33.588Z,28.80
2023-08-15T05:35:02.128Z,29.00
2023-08-15T05:37:32.474Z,29.20
2023-08-15T05:40:05.388Z,29.40
2023-08-15T05:42:33.743Z,29.70
2023-08-15T05:45:02.392Z,29.90
2023-08-15T05:47:30.874Z,30.30
2023-08-15T05:49:59.536Z,30.50
2023-08-15T05:52:28.293Z,30.90
2023-08-15T05:54:58.478Z,31.20
2023-08-15T05:57:26.781Z,31.50
2023-08-15T05:59:55.534Z,31.70
2023-08-15T06:02:23.737Z,32.00
2023-08-15T06:04:52.425Z,32.10
2023-08-15T06:07:21.065Z,32.30
2023-08-15T06:09:49.785Z,32.40
2023-08-15T06:12:19.399Z,32.60
2023-08-15T06:14:47.974Z,32.70
2023-08-15T06:17:18.308Z,32.90
2023-08-15T06:19:47.099Z,33.10
2023-08-15T06:22:16.377Z,33.40
2023-08-15T06:24:45.088Z,33.60
2023-08-15T06:27:13.744Z,33.90
2023-08-15T06:29:43.661Z,34.10
2023-08-15T06:32:26.819Z,34.40
2023-08-15T06:34:55.503Z,34.50
2023-08-15T06:37:24.345Z,34.60
2023-08-15T06:39:53.039Z,34.80
2023-08-15T06:42:21.329Z,34.90
2023-08-15T06:44:52.145Z,35.00
2023-08-15T06:47:20.646Z,35.10
2023-08-15T06:49:49.324Z,35.10
2023-08-15T06:52:17.720Z,35.10
2023-08-15T06:54:47.349Z,35.20
2023-08-15T06:57:15.687Z,35.20
2023-08-15T06:59:44.750Z,35.30
2023-08-15T07:02:14.618Z,35.30
2023-08-15T07:04:45.124Z,35.30
2023-08-15T07:07:13.738Z,35.30
2023-08-15T07:09:42.531Z,35.40
2023-08-15T07:12:11.280Z,35.60
2023-08-15T07:14:40.184Z,35.70
2023-08-15T07:17:08.576Z,35.90
2023-08-15T07:19:38.914Z,36.10
2023-08-15T07:22:07.479Z,36.30
2023-08-15T07:24:36.195Z,36.40
2023-08-15T07:27:04.593Z,36.50
2023-08-15T07:29:33.187Z,36.70
2023-08-15T07:32:01.467Z,36.80
2023-08-15T07:34:30.092Z,36.90
2023-08-15T07:36:59.791Z,37.00
2023-08-15T07:39:29.019Z,37.10
2023-08-15T07:41:57.347Z,37.10
2023-08-15T07:44:26.797Z,37.10
2023-08-15T07:46:55.252Z,37.30
2023-08-15T07:49:23.999Z,37.40
2023-08-15T07:51:54.134Z,37.50
2023-08-15T07:54:24.271Z,37.70
2023-08-15T07:56:52.650Z,37.80
2023-08-15T07:59:21.428Z,37.90
2023-08-15T08:01:49.757Z,38.00
2023-08-15T08:04:20.247Z,38.20
2023-08-15T08:06:49.837Z,38.30
2023-08-15T08:09:19.458Z,38.40
2023-08-15T08:11:50.029Z,38.40
2023-08-15T08:14:20.864Z,38.40
2023-08-15T08:16:49.339Z,38.50
2023-08-15T08:19:19.177Z,38.60
2023-08-15T08:21:48.028Z,38.60
2023-08-15T08:24:17.253Z,38.70
2023-08-15T08:26:45.667Z,38.80
2023-08-15T08:29:16.406Z,38.80
2023-08-15T08:31:44.798Z,38.80
2023-08-15T08:34:15.789Z,38.70
2023-08-15T08:36:44.659Z,38.80
2023-08-15T08:39:21.806Z,38.80
2023-08-15T08:41:54.627Z,38.90
2023-08-15T08:44:26.090Z,38.90
2023-08-15T08:46:54.837Z,38.80
2023-08-15T08:49:28.975Z,38.80
2023-08-15T08:51:58.686Z,38.70
2023-08-15T08:54:46.982Z,38.60
2023-08-15T08:57:16.682Z,38.50
2023-08-15T08:59:48.347Z,38.30
2023-08-15T09:02:23.718Z,38.20
2023-08-15T09:04:56.071Z,38.10
2023-08-15T09:07:24.984Z,38.00
2023-08-15T09:09:53.731Z,37.90
2023-08-15T09:12:36.545Z,37.90
2023-08-15T09:15:09.884Z,37.80
2023-08-15T09:17:39.468Z,37.60
2023-08-15T09:20:14.781Z,37.30
2023-08-15T09:22:46.173Z,37.20
2023-08-15T09:25:16.251Z,37.00
2023-08-15T09:27:45.936Z,36.80
2023-08-15T09:30:18.678Z,36.70
2023-08-15T09:32:48.148Z,36.70
2023-08-15T09:35:18.478Z,36.70
2023-08-15T09:37:48.297Z,36.70
2023-08-15T09:40:18.595Z,36.70
2023-08-15T09:42:47.769Z,36.70
2023-08-15T09:45:18.457Z,36.60
2023-08-15T09:47:49.713Z,36.60
2023-08-15T09:50:18.872Z,36.50
2023-08-15T09:52:52.578Z,36.40
2023-08-15T09:55:22.175Z,36.40
2023-08-15T09:57:52.216Z,36.30
2023-08-15T10:00:22.466Z,36.20
2023-08-15T10:02:56.358Z,36.10
2023-08-15T10:05:31.741Z,36.10
2023-08-15T10:08:00.583Z,36.00
2023-08-15T10:10:35.178Z,35.90
2023-08-15T10:13:05.148Z,35.90
2023-08-15T10:15:36.660Z,35.80
2023-08-15T10:18:06.325Z,35.80
2023-08-15T10:20:38.901Z,35.70
2023-08-15T10:23:10.765Z,35.70
2023-08-15T10:25:42.756Z,35.70
2023-08-15T10:28:12.659Z,35.60
2023-08-15T10:30:52.381Z,35.60
2023-08-15T10:33:25.354Z,35.60
2023-08-15T10:36:08.092Z,35.50
2023-08-15T10:38:45.157Z,35.40
2023-08-15T10:41:17.122Z,35.30
2023-08-15T10:43:51.470Z,35.30
2023-08-15T10:46:31.654Z,35.30
2023-08-15T10:49:04.705Z,35.20
2023-08-15T10:51:36.057Z,35.20
2023-08-15T10:54:07.495Z,35.10
2023-08-15T10:56:38.542Z,35.00
2023-08-15T10:59:09.100Z,34.90
2023-08-15T11:01:43.433Z,35.00
2023-08-15T11:04:16.081Z,34.90
2023-08-15T11:06:53.985Z,34.90
2023-08-15T11:09:29.590Z,34.90
2023-08-15T11:12:07.160Z,34.80
2023-08-15T11:14:36.196Z,34.80
2023-08-15T11:17:08.102Z,34.80
2023-08-15T11:19:37.182Z,34.80
2023-08-15T11:22:08.002Z,34.80
2023-08-15T11:24:37.404Z,34.80
2023-08-15T11:27:07.104Z,34.70
2023-08-15T11:29:36.702Z,34.70
2023-08-15T11:32:07.259Z,34.70
2023-08-15T11:34:39.987Z,34.60
2023-08-15T11:37:12.433Z,34.60
2023-08-15T11:39:41.113Z,34.60
2023-08-15T11:42:13.322Z,34.50
2023-08-15T11:44:42.242Z,34.40
2023-08-15T11:47:15.756Z,34.40
2023-08-15T11:49:48.524Z,34.30
2023-08-15T11:52:20.622Z,34.30
2023-08-15T11:54:49.761Z,34.30
2023-08-15T11:57:36.548Z,34.20
2023-08-15T12:00:06.969Z,34.20
2023-08-15T12:02:43.098Z,34.20
2023-08-15T12:05:13.968Z,34.20
2023-08-15T12:07:43.789Z,34.10
2023-08-15T12:10:13.820Z,34.10
2023-08-15T12:12:44.179Z,34.00
2023-08-15T12:15:14.234Z,34.10
2023-08-15T12:17:44.515Z,34.00
2023-08-15T12:20:15.660Z,33.90
2023-08-15T12:22:46.005Z,33.90
2023-08-15T12:25:15.725Z,33.90
2023-08-15T12:27:51.071Z,33.80
2023-08-15T12:32:52.475Z,33.80
2023-08-15T12:35:21.185Z,33.70
2023-08-15T12:37:50.477Z,33.70
2023-08-15T12:40:30.677Z,33.60
2023-08-15T12:43:00.601Z,33.60
2023-08-15T12:45:29.647Z,33.60
2023-08-15T12:48:00.401Z,33.50
2023-08-15T12:50:28.939Z,33.50
2023-08-15T12:52:57.988Z,33.40
2023-08-15T12:55:26.759Z,33.40
2023-08-15T12:57:55.648Z,33.40
2023-08-15T13:00:23.962Z,33.30
2023-08-15T13:02:53.806Z,33.20
2023-08-15T13:05:23.701Z,33.20
2023-08-15T13:07:54.939Z,33.10
2023-08-15T13:10:23.889Z,33.10
2023-08-15T13:12:53.292Z,33.10
2023-08-15T13:15:22.023Z,33.10
2023-08-15T13:17:51.368Z,33.00
2023-08-15T13:20:19.687Z,33.00
2023-08-15T13:22:52.467Z,33.00
2023-08-15T13:25:21.028Z,33.00
2023-08-15T13:27:49.672Z,33.00
2023-08-15T13:30:18.519Z,32.90
2023-08-15T13:32:47.469Z,32.90
2023-08-15T13:35:16.504Z,32.90
2023-08-15T13:37:46.246Z,32.90
2023-08-15T13:40:15.961Z,32.90
2023-08-15T13:42:44.871Z,32.90
2023-08-15T13:45:13.510Z,32.90
2023-08-15T13:47:43.402Z,32.90
2023-08-15T13:50:12.162Z,32.90
2023-08-15T13:52:40.930Z,32.80
2023-08-15T13:55:11.041Z,32.80
2023-08-15T13:57:43.363Z,32.80
2023-08-15T14:00:13.615Z,32.80
2023-08-15T14:02:46.427Z,32.80
2023-08-15T14:05:15.046Z,32.70
2023-08-15T14:07:43.729Z,32.70
2023-08-15T14:10:13.153Z,32.70
2023-08-15T14:12:43.294Z,32.70
2023-08-15T14:15:13.522Z,32.70
2023-08-15T14:17:42.310Z,32.70
2023-08-15T14:20:12.704Z,32.70
2023-08-15T14:22:43.339Z,32.60
2023-08-15T14:25:13.527Z,32.60
2023-08-15T14:27:46.308Z,32.60
2023-08-15T14:30:15.385Z,32.60
2023-08-15T14:32:44.296Z,32.60
2023-08-15T14:35:13.002Z,32.60
2023-08-15T14:37:42.394Z,32.60
2023-08-15T14:40:11.031Z,32.60
2023-08-15T14:42:42.776Z,32.50
2023-08-15T14:45:12.807Z,32.50
2023-08-15T14:47:41.939Z,32.50
2023-08-15T14:50:13.742Z,32.50
2023-08-15T14:52:43.435Z,32.40
2023-08-15T14:55:13.184Z,32.40
2023-08-15T14:57:42.793Z,32.40
2023-08-15T15:00:14.506Z,32.40
2023-08-15T15:02:44.269Z,32.40
2023-08-15T15:05:12.934Z,32.30
2023-08-15T15:07:41.627Z,32.30
2023-08-15T15:10:11.783Z,32.30
2023-08-15T15:12:41.367Z,32.20
2023-08-15T15:15:12.178Z,32.20
2023-08-15T15:17:41.309Z,32.20
2023-08-15T15:20:10.680Z,32.10
2023-08-15T15:22:40.098Z,32.10
2023-08-15T15:25:10.781Z,32.10
2023-08-15T15:27:39.947Z,32.00
2023-08-15T15:30:10.301Z,32.00
2023-08-15T15:32:40.743Z,32.00
2023-08-15T15:35:09.661Z,31.90
2023-08-15T15:37:40.512Z,31.90
2023-08-15T15:40:10.135Z,31.80
2023-08-15T15:42:40.105Z,31.80
2023-08-15T15:45:10.358Z,31.80
2023-08-15T15:47:40.883Z,31.80
2023-08-15T15:50:09.944Z,31.70
2023-08-15T15:52:39.364Z,31.70
2023-08-15T15:55:10.380Z,31.70
2023-08-15T15:57:39.913Z,31.60
2023-08-15T16:00:13.886Z,31.60
2023-08-15T16:02:44.182Z,31.60
2023-08-15T16:05:13.033Z,31.50
2023-08-15T16:07:42.218Z,31.50
2023-08-15T16:10:12.693Z,31.50
2023-08-15T16:12:41.335Z,31.50
2023-08-15T16:15:10.701Z,31.40
2023-08-15T16:17:39.689Z,31.40
2023-08-15T16:20:10.834Z,31.40
2023-08-15T16:22:39.556Z,31.30
2023-08-15T16:25:08.655Z,31.30
2023-08-15T16:27:38.014Z,31.20
2023-08-15T16:30:17.263Z,31.20
2023-08-15T16:32:49.015Z,31.20
2023-08-15T16:35:19.205Z,31.10
2023-08-15T16:37:47.881Z,31.00
2023-08-15T16:40:16.293Z,31.00
2023-08-15T16:42:44.945Z,30.90
2023-08-15T16:45:13.241Z,30.80
2023-08-15T16:47:41.837Z,30.80
2023-08-15T16:50:10.566Z,30.70
2023-08-15T16:52:40.786Z,30.60
2023-08-15T16:55:09.609Z,30.60
2023-08-15T16:57:38.263Z,30.50
2023-08-15T17:00:08.307Z,30.50
2023-08-15T17:02:37.203Z,30.40
2023-08-15T17:05:06.281Z,30.30
2023-08-15T17:07:35.591Z,30.30
2023-08-15T17:10:06.431Z,30.20
2023-08-15T17:12:35.089Z,30.10
2023-08-15T17:15:03.996Z,30.00
2023-08-15T17:17:32.627Z,29.90
2023-08-15T17:20:01.287Z,29.80
2023-08-15T17:22:33.172Z,29.70
2023-08-15T17:25:02.024Z,29.60
2023-08-15T17:27:32.488Z,29.50
2023-08-15T17:30:01.034Z,29.40
2023-08-15T17:32:30.954Z,29.20
2023-08-15T17:34:59.418Z,29.10
2023-08-15T17:37:28.096Z,29.00
2023-08-15T17:39:56.468Z,28.90
2023-08-15T17:42:25.760Z,28.80
2023-08-15T17:44:55.519Z,28.60
2023-08-15T17:47:24.246Z,28.50
2023-08-15T17:49:52.867Z,28.30
2023-08-15T17:52:21.775Z,28.20
2023-08-15T17:54:50.420Z,28.10
2023-08-15T17:57:19.146Z,28.00
2023-08-15T17:59:47.655Z,27.80
2023-08-15T18:02:19.336Z,27.70
2023-08-15T18:04:47.908Z,27.60
2023-08-15T18:07:16.564Z,27.40
2023-08-15T18:09:45.149Z,27.30
2023-08-15T18:12:14.058Z,27.20
2023-08-15T18:14:44.053Z,27.10
2023-08-15T18:17:12.706Z,27.00
2023-08-15T18:19:43.970Z,26.90
2023-08-15T18:22:14.696Z,26.80
2023-08-15T18:24:43.310Z,26.60
2023-08-15T18:27:11.898Z,26.50
2023-08-15T18:29:40.150Z,26.40
2023-08-15T18:32:09.015Z,26.30
2023-08-15T18:34:37.841Z,26.20
2023-08-15T18:37:07.881Z,26.10
2023-08-15T18:39:36.647Z,26.10
2023-08-15T18:42:05.834Z,26.00
2023-08-15T18:44:34.127Z,25.90
2023-08-15T18:47:03.492Z,25.80
2023-08-15T18:49:32.176Z,25.80
2023-08-15T18:52:00.781Z,25.70
2023-08-15T18:54:30.618Z,25.60
2023-08-15T18:57:00.528Z,25.50
2023-08-15T18:59:29.138Z,25.50
2023-08-15T19:01:57.715Z,25.40
2023-08-15T19:04:28.190Z,25.40
2023-08-15T19:06:56.745Z,25.30
2023-08-15T19:09:25.388Z,25.30
2023-08-15T19:11:55.571Z,25.20
2023-08-15T19:14:23.910Z,25.10
2023-08-15T19:16:52.562Z,25.10
2023-08-15T19:19:20.917Z,25.10
2023-08-15T19:21:49.716Z,25.00
2023-08-15T19:24:18.962Z,25.00
2023-08-15T19:26:47.795Z,24.90
2023-08-15T19:29:17.429Z,24.90
2023-08-15T19:31:46.244Z,24.80
2023-08-15T19:34:17.401Z,24.70
2023-08-15T19:36:46.120Z,24.70
2023-08-15T19:39:14.950Z,24.60
2023-08-15T19:41:43.761Z,24.50
2023-08-15T19:44:12.079Z,24.50
2023-08-15T19:46:42.158Z,24.40
2023-08-15T19:49:10.582Z,24.40
2023-08-15T19:51:39.364Z,24.30
2023-08-15T19:54:07.976Z,24.30
2023-08-15T19:56:36.982Z,24.20
2023-08-15T19:59:05.741Z,24.20
2023-08-15T20:01:34.390Z,24.10
2023-08-15T20:04:04.213Z,24.10
2023-08-15T20:06:32.948Z,24.00
2023-08-15T20:09:01.256Z,24.00
2023-08-15T20:11:31.132Z,23.90
2023-08-15T20:14:00.113Z,23.90
2023-08-15T20:16:30.171Z,23.90
2023-08-15T20:18:58.488Z,23.90
2023-08-15T20:21:31.308Z,23.80
2023-08-15T20:24:00.339Z,23.80
2023-08-15T20:26:29.075Z,23.70
2023-08-15T20:28:57.963Z,23.70
2023-08-15T20:31:30.011Z,23.60
2023-08-15T20:34:00.928Z,23.60
2023-08-15T20:36:35.373Z,23.60
2023-08-15T20:39:04.959Z,23.50
2023-08-15T20:41:34.485Z,23.50
2023-08-15T20:44:03.498Z,23.40
2023-08-15T20:46:38.362Z,23.40
2023-08-15T20:49:08.087Z,23.40
2023-08-15T20:51:38.538Z,23.40
2023-08-15T20:54:07.347Z,23.40
2023-08-15T20:56:36.214Z,23.30
2023-08-15T20:59:05.119Z,23.30
2023-08-15T21:01:34.058Z,23.20
2023-08-15T21:04:02.536Z,23.10
2023-08-15T21:06:33.251Z,23.20
2023-08-15T21:09:02.967Z,23.10
2023-08-15T21:11:33.024Z,23.10
2023-08-15T21:14:01.745Z,23.00
2023-08-15T21:16:30.437Z,23.00
2023-08-15T21:18:59.152Z,22.90
2023-08-15T21:21:28.440Z,22.90
2023-08-15T21:24:02.885Z,22.90
2023-08-15T21:26:32.952Z,22.80
2023-08-15T21:29:01.365Z,22.80
2023-08-15T21:31:30.905Z,22.80
2023-08-15T21:33:59.439Z,22.80
2023-08-15T21:36:29.177Z,22.80
2023-08-15T21:39:02.095Z,22.70
2023-08-15T21:41:31.506Z,22.70
2023-08-15T21:44:01.926Z,22.70
2023-08-15T21:46:33.482Z,22.70
2023-08-15T21:49:03.541Z,22.60
2023-08-15T21:51:38.464Z,22.60
2023-08-15T21:54:08.848Z,22.50
2023-08-15T21:56:37.567Z,22.50
2023-08-15T21:59:07.541Z,22.50
2023-08-15T22:01:37.338Z,22.40
2023-08-15T22:04:08.580Z,22.40
2023-08-15T22:06:37.158Z,22.40
2023-08-15T22:09:07.690Z,22.40
2023-08-15T22:11:36.437Z,22.40
2023-08-15T22:14:05.033Z,22.30
2023-08-15T22:16:33.836Z,22.30
2023-08-15T22:19:02.345Z,22.30
2023-08-15T22:21:30.993Z,22.30
2023-08-15T22:24:03.113Z,22.20
2023-08-15T22:26:33.015Z,22.20
2023-08-15T22:29:01.329Z,22.10
2023-08-15T22:31:30.483Z,22.10
2023-08-15T22:33:58.820Z,22.10
2023-08-15T22:36:27.414Z,22.00
2023-08-15T22:38:55.635Z,22.00
2023-08-15T22:41:24.100Z,22.00
2023-08-15T22:43:53.698Z,22.00
2023-08-15T22:46:22.250Z,21.90
2023-08-15T22:48:50.488Z,21.90
2023-08-15T22:51:19.033Z,21.80
2023-08-15T22:53:47.358Z,21.80
2023-08-15T22:56:15.985Z,21.80
2023-08-15T22:58:44.332Z,21.80
2023-08-15T23:01:14.310Z,21.70
2023-08-15T23:03:42.551Z,21.70
2023-08-15T23:06:11.622Z,21.70
2023-08-15T23:08:39.977Z,21.60
2023-08-15T23:11:08.694Z,21.60
2023-08-15T23:13:36.998Z,21.60
2023-08-15T23:16:06.122Z,21.50
2023-08-15T23:18:35.755Z,21.50
2023-08-15T23:21:04.659Z,21.50
2023-08-15T23:23:33.090Z,21.50
2023-08-15T23:26:01.540Z,21.50
2023-08-15T23:28:29.856Z,21.40
2023-08-15T23:30:58.574Z,21.40
2023-08-15T23:33:27.025Z,21.40
2023-08-15T23:35:56.896Z,21.40
2023-08-15T23:38:25.176Z,21.30
2023-08-15T23:40:54.058Z,21.30
2023-08-15T23:43:22.265Z,21.30
2023-08-15T23:45:51.215Z,21.30
2023-08-15T23:48:19.456Z,21.20
2023-08-15T23:50:47.968Z,21.20
2023-08-15T23:53:17.595Z,21.20
2023-08-15T23:55:46.507Z,21.20
2023-08-15T23:58:14.836Z,21.20
